Pinos Altos, New Mexico
Current Conditions -  °F | °C
As of 9:15 AM on Sunday 25 Jan 2015 (Local Time) from KSVC Reporting Station
Clear Clear  
Wind Chill: 45°   Ceiling: Unl
Heat Index: 45°   Visibility: 10mi
Dew Point: 18°   Wind: 3mph
Humidity: 34%   Direction: 50°NE
Pressure: 30.28"   Gusts: NA
Location:  32.87°N, 108.22°W
Report Text: KSVC 251615Z AUTO 05003KT 10SM CLR 07/M08 A3028 RMK AO2
Loading
Personal Weather Stations






























Interactive Weather Map New forecast layout! Learn more

10-Day Weather Forecast

Advertisements
Track Severe Weather on mobile